sensor_id;sensor_type;location;lat;lon;timestamp;pressure;altitude;pressure_sealevel;temperature;humidity
7940;BME280;4015;48.888;9.226;2024-01-16T00:00:05;159869.44;;;18.41;41.58
7940;BME280;4015;48.888;9.226;2024-01-16T00:02:30;159868.16;;;18.40;41.58
7940;BME280;4015;48.888;9.226;2024-01-16T00:04:55;159868.16;;;18.40;41.52
7940;BME280;4015;48.888;9.226;2024-01-16T00:07:21;159863.03;;;18.38;41.51
7940;BME280;4015;48.888;9.226;2024-01-16T00:09:46;159864.31;;;18.39;41.24
7940;BME280;4015;48.888;9.226;2024-01-16T00:12:12;159863.03;;;18.38;41.56
7940;BME280;4015;48.888;9.226;2024-01-16T00:14:37;159859.19;;;18.37;41.52
7940;BME280;4015;48.888;9.226;2024-01-16T00:17:03;159860.47;;;18.37;41.51
7940;BME280;4015;48.888;9.226;2024-01-16T00:19:28;159856.63;;;18.36;41.46
7940;BME280;4015;48.888;9.226;2024-01-16T00:21:54;159856.63;;;18.36;41.50
7940;BME280;4015;48.888;9.226;2024-01-16T00:24:19;159854.03;;;18.34;41.89
7940;BME280;4015;48.888;9.226;2024-01-16T00:26:45;159855.31;;;18.35;41.47
7940;BME280;4015;48.888;9.226;2024-01-16T00:29:11;159852.75;;;18.34;41.41
7940;BME280;4015;48.888;9.226;2024-01-16T00:31:38;159854.03;;;18.34;41.57
7940;BME280;4015;48.888;9.226;2024-01-16T00:34:03;159851.47;;;18.33;41.48
7940;BME280;4015;48.888;9.226;2024-01-16T00:36:29;159851.47;;;18.33;41.39
7940;BME280;4015;48.888;9.226;2024-01-16T00:38:54;159848.91;;;18.32;41.43
7940;BME280;4015;48.888;9.226;2024-01-16T00:41:19;159846.34;;;18.31;41.52
7940;BME280;4015;48.888;9.226;2024-01-16T00:43:45;159846.34;;;18.31;41.55
7940;BME280;4015;48.888;9.226;2024-01-16T00:46:11;159841.25;;;18.29;41.59
7940;BME280;4015;48.888;9.226;2024-01-16T00:48:36;159839.91;;;18.29;41.47
7940;BME280;4015;48.888;9.226;2024-01-16T00:51:01;159836.06;;;18.27;41.53
7940;BME280;4015;48.888;9.226;2024-01-16T00:53:27;159836.06;;;18.27;41.41
7940;BME280;4015;48.888;9.226;2024-01-16T00:55:52;159833.50;;;18.26;41.43
7940;BME280;4015;48.888;9.226;2024-01-16T00:58:19;159833.50;;;18.26;41.75
7940;BME280;4015;48.888;9.226;2024-01-16T01:00:45;159830.97;;;18.25;41.61
7940;BME280;4015;48.888;9.226;2024-01-16T01:03:10;159829.69;;;18.25;41.57
7940;BME280;4015;48.888;9.226;2024-01-16T01:05:35;159829.69;;;18.25;41.50
7940;BME280;4015;48.888;9.226;2024-01-16T01:08:01;159827.13;;;18.24;41.62
7940;BME280;4015;48.888;9.226;2024-01-16T01:10:26;159825.84;;;18.23;41.34
7940;BME280;4015;48.888;9.226;2024-01-16T01:12:51;159825.84;;;18.23;41.57
7940;BME280;4015;48.888;9.226;2024-01-16T01:15:19;159823.22;;;18.22;41.43
7940;BME280;4015;48.888;9.226;2024-01-16T01:17:45;159832.22;;;18.26;41.43
7940;BME280;4015;48.888;9.226;2024-01-16T01:20:12;159848.91;;;18.32;41.33
7940;BME280;4015;48.888;9.226;2024-01-16T01:22:38;159868.16;;;18.40;41.42
7940;BME280;4015;48.888;9.226;2024-01-16T01:25:03;159883.56;;;18.46;41.48
7940;BME280;4015;48.888;9.226;2024-01-16T01:27:29;159907.97;;;18.56;41.06
7940;BME280;4015;48.888;9.226;2024-01-16T01:29:54;159925.94;;;18.63;40.94
7940;BME280;4015;48.888;9.226;2024-01-16T01:32:20;159950.34;;;18.73;40.94
7940;BME280;4015;48.888;9.226;2024-01-16T01:34:45;159965.75;;;18.79;41.34
7940;BME280;4015;48.888;9.226;2024-01-16T01:37:11;159983.75;;;18.86;40.86
7940;BME280;4015;48.888;9.226;2024-01-16T01:39:36;159999.16;;;18.92;40.46
7940;BME280;4015;48.888;9.226;2024-01-16T01:42:01;160018.41;;;19.00;40.57
7940;BME280;4015;48.888;9.226;2024-01-16T01:44:27;160032.53;;;19.05;40.68
7940;BME280;4015;48.888;9.226;2024-01-16T01:46:55;160044.06;;;19.10;40.43
7940;BME280;4015;48.888;9.226;2024-01-16T01:49:21;160056.91;;;19.15;40.44
7940;BME280;4015;48.888;9.226;2024-01-16T01:51:48;160083.88;;;19.26;40.14
7940;BME280;4015;48.888;9.226;2024-01-16T01:54:15;160087.72;;;19.27;40.45
7940;BME280;4015;48.888;9.226;2024-01-16T01:56:43;160101.84;;;19.33;40.44
7940;BME280;4015;48.888;9.226;2024-01-16T01:59:09;160122.38;;;19.41;39.91
7940;BME280;4015;48.888;9.226;2024-01-16T02:01:34;160124.94;;;19.42;40.09
7940;BME280;4015;48.888;9.226;2024-01-16T02:04:01;160136.50;;;19.47;40.10
7940;BME280;4015;48.888;9.226;2024-01-16T02:06:27;160157.09;;;19.55;39.98
7940;BME280;4015;48.888;9.226;2024-01-16T02:08:53;160168.66;;;19.59;39.88
7940;BME280;4015;48.888;9.226;2024-01-16T02:11:19;160185.38;;;19.66;39.55
7940;BME280;4015;48.888;9.226;2024-01-16T02:13:44;160191.81;;;19.69;39.77
7940;BME280;4015;48.888;9.226;2024-01-16T02:16:20;160208.50;;;19.75;39.84
7940;BME280;4015;48.888;9.226;2024-01-16T02:18:45;160217.47;;;19.79;39.87
7940;BME280;4015;48.888;9.226;2024-01-16T02:21:12;160232.88;;;19.85;39.55
7940;BME280;4015;48.888;9.226;2024-01-16T02:23:40;160244.47;;;19.89;39.31
7940;BME280;4015;48.888;9.226;2024-01-16T02:26:06;160252.19;;;19.92;39.28
7940;BME280;4015;48.888;9.226;2024-01-16T02:28:32;160266.28;;;19.98;39.21
7940;BME280;4015;48.888;9.226;2024-01-16T02:30:57;160275.28;;;20.02;39.62
7940;BME280;4015;48.888;9.226;2024-01-16T02:33:24;160291.97;;;20.08;39.48
7940;BME280;4015;48.888;9.226;2024-01-16T02:35:49;160290.69;;;20.08;39.29
7940;BME280;4015;48.888;9.226;2024-01-16T02:38:14;160297.09;;;20.10;39.20
7940;BME280;4015;48.888;9.226;2024-01-16T02:40:39;160303.56;;;20.13;38.91
7940;BME280;4015;48.888;9.226;2024-01-16T02:43:05;160306.13;;;20.14;39.56
7940;BME280;4015;48.888;9.226;2024-01-16T02:45:31;160307.41;;;20.14;39.25
7940;BME280;4015;48.888;9.226;2024-01-16T02:47:56;160295.81;;;20.10;39.38
7940;BME280;4015;48.888;9.226;2024-01-16T02:50:22;160297.09;;;20.10;39.18
7940;BME280;4015;48.888;9.226;2024-01-16T02:52:47;160303.56;;;20.13;39.52
7940;BME280;4015;48.888;9.226;2024-01-16T02:55:12;160304.84;;;20.13;39.51
7940;BME280;4015;48.888;9.226;2024-01-16T02:57:38;160320.25;;;20.19;39.57
7940;BME280;4015;48.888;9.226;2024-01-16T03:00:03;160318.97;;;20.19;39.33
7940;BME280;4015;48.888;9.226;2024-01-16T03:02:29;160321.53;;;20.20;39.47
7940;BME280;4015;48.888;9.226;2024-01-16T03:04:55;160334.38;;;20.25;39.31
7940;BME280;4015;48.888;9.226;2024-01-16T03:07:20;160331.84;;;20.24;39.21
7940;BME280;4015;48.888;9.226;2024-01-16T03:09:45;160335.66;;;20.26;39.35
7940;BME280;4015;48.888;9.226;2024-01-16T03:12:11;160340.78;;;20.28;39.30
7940;BME280;4015;48.888;9.226;2024-01-16T03:14:36;160340.78;;;20.28;39.00
7940;BME280;4015;48.888;9.226;2024-01-16T03:17:04;160340.78;;;20.28;39.16
7940;BME280;4015;48.888;9.226;2024-01-16T03:19:29;160339.53;;;20.27;39.28
7940;BME280;4015;48.888;9.226;2024-01-16T03:21:55;160356.22;;;20.34;38.97
7940;BME280;4015;48.888;9.226;2024-01-16T03:24:20;160349.81;;;20.31;39.06
7940;BME280;4015;48.888;9.226;2024-01-16T03:26:46;160339.53;;;20.27;39.01
7940;BME280;4015;48.888;9.226;2024-01-16T03:29:11;160345.91;;;20.30;38.78
7940;BME280;4015;48.888;9.226;2024-01-16T03:31:37;160348.53;;;20.31;39.04
7940;BME280;4015;48.888;9.226;2024-01-16T03:34:02;160353.66;;;20.33;39.20
7940;BME280;4015;48.888;9.226;2024-01-16T03:36:28;160352.38;;;20.32;39.15
7940;BME280;4015;48.888;9.226;2024-01-16T03:38:53;160361.34;;;20.36;38.87
7940;BME280;4015;48.888;9.226;2024-01-16T03:41:18;160360.06;;;20.35;39.19
7940;BME280;4015;48.888;9.226;2024-01-16T03:43:44;160365.22;;;20.37;38.98
7940;BME280;4015;48.888;9.226;2024-01-16T03:46:12;160376.75;;;20.42;39.00
7940;BME280;4015;48.888;9.226;2024-01-16T03:48:38;160383.22;;;20.44;38.86
7940;BME280;4015;48.888;9.226;2024-01-16T03:51:03;160374.19;;;20.41;38.72
7940;BME280;4015;48.888;9.226;2024-01-16T03:53:29;160366.50;;;20.38;39.24
7940;BME280;4015;48.888;9.226;2024-01-16T03:55:54;160367.78;;;20.38;39.00
7940;BME280;4015;48.888;9.226;2024-01-16T03:58:19;160372.91;;;20.40;38.81
7940;BME280;4015;48.888;9.226;2024-01-16T04:00:45;160369.06;;;20.39;38.73
7940;BME280;4015;48.888;9.226;2024-01-16T04:03:11;160378.03;;;20.42;38.99
7940;BME280;4015;48.888;9.226;2024-01-16T04:05:36;160372.91;;;20.40;39.20
7940;BME280;4015;48.888;9.226;2024-01-16T04:08:02;160371.63;;;20.40;38.92
7940;BME280;4015;48.888;9.226;2024-01-16T04:10:27;160369.06;;;20.39;38.88
7940;BME280;4015;48.888;9.226;2024-01-16T04:12:53;160370.34;;;20.39;38.85
7940;BME280;4015;48.888;9.226;2024-01-16T04:15:18;160374.19;;;20.41;39.11
7940;BME280;4015;48.888;9.226;2024-01-16T04:17:43;160378.03;;;20.42;38.62
7940;BME280;4015;48.888;9.226;2024-01-16T04:20:09;160380.66;;;20.43;39.03
7940;BME280;4015;48.888;9.226;2024-01-16T04:22:35;160383.22;;;20.44;38.80
7940;BME280;4015;48.888;9.226;2024-01-16T04:25:00;160378.03;;;20.42;38.83
7940;BME280;4015;48.888;9.226;2024-01-16T04:27:27;160388.38;;;20.46;39.15
7940;BME280;4015;48.888;9.226;2024-01-16T04:29:52;160383.22;;;20.44;39.24
7940;BME280;4015;48.888;9.226;2024-01-16T04:32:18;160394.84;;;20.49;39.05
7940;BME280;4015;48.888;9.226;2024-01-16T04:34:43;160393.50;;;20.48;39.15
7940;BME280;4015;48.888;9.226;2024-01-16T04:37:09;160385.81;;;20.45;38.85
7940;BME280;4015;48.888;9.226;2024-01-16T04:39:34;160378.03;;;20.42;38.82
7940;BME280;4015;48.888;9.226;2024-01-16T04:41:59;160393.50;;;20.48;39.03
7940;BME280;4015;48.888;9.226;2024-01-16T04:44:24;160384.53;;;20.45;38.60
7940;BME280;4015;48.888;9.226;2024-01-16T04:46:50;160384.53;;;20.45;39.05
7940;BME280;4015;48.888;9.226;2024-01-16T04:49:15;160389.66;;;20.47;38.71
7940;BME280;4015;48.888;9.226;2024-01-16T04:51:40;160398.69;;;20.51;38.89
7940;BME280;4015;48.888;9.226;2024-01-16T04:54:06;160383.22;;;20.44;38.98
7940;BME280;4015;48.888;9.226;2024-01-16T04:56:31;160393.50;;;20.48;38.81
7940;BME280;4015;48.888;9.226;2024-01-16T04:58:56;160398.69;;;20.51;39.02
7940;BME280;4015;48.888;9.226;2024-01-16T05:01:22;160401.25;;;20.52;38.58
7940;BME280;4015;48.888;9.226;2024-01-16T05:03:47;160410.22;;;20.55;38.92
7940;BME280;4015;48.888;9.226;2024-01-16T05:06:13;160406.38;;;20.54;38.65
7940;BME280;4015;48.888;9.226;2024-01-16T05:08:40;160402.53;;;20.52;39.02
7940;BME280;4015;48.888;9.226;2024-01-16T05:11:05;160405.09;;;20.53;38.68
7940;BME280;4015;48.888;9.226;2024-01-16T05:13:30;160412.81;;;20.56;38.68
7940;BME280;4015;48.888;9.226;2024-01-16T05:15:56;160417.94;;;20.58;38.44
7940;BME280;4015;48.888;9.226;2024-01-16T05:18:21;160408.94;;;20.55;38.78
7940;BME280;4015;48.888;9.226;2024-01-16T05:20:46;160417.94;;;20.58;38.39
7940;BME280;4015;48.888;9.226;2024-01-16T05:23:12;160410.22;;;20.55;39.14
7940;BME280;4015;48.888;9.226;2024-01-16T05:25:37;160412.81;;;20.56;38.93
7940;BME280;4015;48.888;9.226;2024-01-16T05:28:03;160411.53;;;20.56;38.91
7940;BME280;4015;48.888;9.226;2024-01-16T05:30:28;160408.94;;;20.55;38.50
7940;BME280;4015;48.888;9.226;2024-01-16T05:32:54;160407.66;;;20.54;38.69
7940;BME280;4015;48.888;9.226;2024-01-16T05:35:20;160408.94;;;20.55;39.04
7940;BME280;4015;48.888;9.226;2024-01-16T05:37:45;160415.38;;;20.57;38.81
7940;BME280;4015;48.888;9.226;2024-01-16T05:40:10;160419.22;;;20.59;38.88
7940;BME280;4015;48.888;9.226;2024-01-16T05:42:37;160416.66;;;20.58;38.51
7940;BME280;4015;48.888;9.226;2024-01-16T05:45:02;160429.53;;;20.63;38.52
7940;BME280;4015;48.888;9.226;2024-01-16T05:47:27;160433.34;;;20.64;39.07
7940;BME280;4015;48.888;9.226;2024-01-16T05:49:54;160425.63;;;20.61;38.51
7940;BME280;4015;48.888;9.226;2024-01-16T05:52:19;160439.78;;;20.67;38.59
7940;BME280;4015;48.888;9.226;2024-01-16T05:54:44;160434.63;;;20.65;38.62
7940;BME280;4015;48.888;9.226;2024-01-16T05:57:10;160425.63;;;20.61;38.33
7940;BME280;4015;48.888;9.226;2024-01-16T05:59:35;160415.38;;;20.57;38.52
7940;BME280;4015;48.888;9.226;2024-01-16T06:02:00;160421.78;;;20.60;38.73
7940;BME280;4015;48.888;9.226;2024-01-16T06:04:26;160419.22;;;20.59;38.44
7940;BME280;4015;48.888;9.226;2024-01-16T06:06:51;160419.22;;;20.59;38.78
7940;BME280;4015;48.888;9.226;2024-01-16T06:09:17;160417.94;;;20.58;38.31
7940;BME280;4015;48.888;9.226;2024-01-16T06:11:43;160416.66;;;20.58;38.50
7940;BME280;4015;48.888;9.226;2024-01-16T06:14:08;160420.50;;;20.59;38.88
7940;BME280;4015;48.888;9.226;2024-01-16T06:16:34;160416.66;;;20.58;38.55
7940;BME280;4015;48.888;9.226;2024-01-16T06:19:00;160419.22;;;20.59;38.58
7940;BME280;4015;48.888;9.226;2024-01-16T06:21:25;160426.97;;;20.62;38.81
7940;BME280;4015;48.888;9.226;2024-01-16T06:23:51;160425.63;;;20.61;38.79
7940;BME280;4015;48.888;9.226;2024-01-16T06:26:17;160432.09;;;20.64;38.34
7940;BME280;4015;48.888;9.226;2024-01-16T06:28:42;160437.22;;;20.66;38.47
7940;BME280;4015;48.888;9.226;2024-01-16T06:31:08;160437.22;;;20.66;38.56
7940;BME280;4015;48.888;9.226;2024-01-16T06:33:34;160439.78;;;20.67;38.33
7940;BME280;4015;48.888;9.226;2024-01-16T06:35:59;160435.91;;;20.65;38.41
7940;BME280;4015;48.888;9.226;2024-01-16T06:38:24;160429.53;;;20.63;38.77
7940;BME280;4015;48.888;9.226;2024-01-16T06:40:50;160429.53;;;20.63;38.33
7940;BME280;4015;48.888;9.226;2024-01-16T06:43:15;160433.34;;;20.64;38.65
7940;BME280;4015;48.888;9.226;2024-01-16T06:45:42;160432.09;;;20.64;38.44
7940;BME280;4015;48.888;9.226;2024-01-16T06:48:07;160434.63;;;20.65;38.65
7940;BME280;4015;48.888;9.226;2024-01-16T06:50:33;160438.50;;;20.66;38.70
7940;BME280;4015;48.888;9.226;2024-01-16T06:52:58;160437.22;;;20.66;38.53
7940;BME280;4015;48.888;9.226;2024-01-16T06:55:23;160435.91;;;20.65;38.08
7940;BME280;4015;48.888;9.226;2024-01-16T06:57:48;160437.22;;;20.66;38.62
7940;BME280;4015;48.888;9.226;2024-01-16T07:00:14;160439.78;;;20.67;38.73
7940;BME280;4015;48.888;9.226;2024-01-16T07:02:40;160435.91;;;20.65;38.52
7940;BME280;4015;48.888;9.226;2024-01-16T07:05:11;160439.78;;;20.67;38.69
7940;BME280;4015;48.888;9.226;2024-01-16T07:07:37;160456.47;;;20.73;38.21
7940;BME280;4015;48.888;9.226;2024-01-16T07:10:03;160442.38;;;20.68;38.71
7940;BME280;4015;48.888;9.226;2024-01-16T07:12:28;160438.50;;;20.66;38.74
7940;BME280;4015;48.888;9.226;2024-01-16T07:14:53;160444.94;;;20.69;38.79
7940;BME280;4015;48.888;9.226;2024-01-16T07:17:19;160438.50;;;20.66;38.32
7940;BME280;4015;48.888;9.226;2024-01-16T07:19:44;160438.50;;;20.66;38.29
7940;BME280;4015;48.888;9.226;2024-01-16T07:22:09;160439.78;;;20.67;38.51
7940;BME280;4015;48.888;9.226;2024-01-16T07:24:35;160443.66;;;20.68;38.71
7940;BME280;4015;48.888;9.226;2024-01-16T07:27:00;160429.53;;;20.63;38.79
7940;BME280;4015;48.888;9.226;2024-01-16T07:29:26;160425.63;;;20.61;38.61
7940;BME280;4015;48.888;9.226;2024-01-16T07:31:51;160429.53;;;20.63;38.25
7940;BME280;4015;48.888;9.226;2024-01-16T07:34:17;160423.06;;;20.60;38.75
7940;BME280;4015;48.888;9.226;2024-01-16T07:36:47;160430.81;;;20.63;38.54
7940;BME280;4015;48.888;9.226;2024-01-16T07:39:12;160437.22;;;20.66;38.34
7940;BME280;4015;48.888;9.226;2024-01-16T07:41:38;160434.63;;;20.65;38.36
7940;BME280;4015;48.888;9.226;2024-01-16T07:44:04;160441.06;;;20.67;38.46
7940;BME280;4015;48.888;9.226;2024-01-16T07:46:29;160444.94;;;20.69;38.35
7940;BME280;4015;48.888;9.226;2024-01-16T07:48:54;160446.22;;;20.69;38.27
7940;BME280;4015;48.888;9.226;2024-01-16T07:51:19;160457.75;;;20.74;38.50
7940;BME280;4015;48.888;9.226;2024-01-16T07:53:45;160450.06;;;20.71;38.40
7940;BME280;4015;48.888;9.226;2024-01-16T07:56:10;160446.22;;;20.69;38.38
7940;BME280;4015;48.888;9.226;2024-01-16T07:58:36;160439.78;;;20.67;38.45
7940;BME280;4015;48.888;9.226;2024-01-16T08:01:02;160448.78;;;20.70;38.26
7940;BME280;4015;48.888;9.226;2024-01-16T08:03:28;160450.06;;;20.71;38.73
7940;BME280;4015;48.888;9.226;2024-01-16T08:05:53;160448.78;;;20.70;38.47
7940;BME280;4015;48.888;9.226;2024-01-16T08:08:18;160444.94;;;20.69;38.38
7940;BME280;4015;48.888;9.226;2024-01-16T08:10:44;160448.78;;;20.70;38.20
7940;BME280;4015;48.888;9.226;2024-01-16T08:13:09;160446.22;;;20.69;38.39
7940;BME280;4015;48.888;9.226;2024-01-16T08:15:35;160442.38;;;20.68;38.48
7940;BME280;4015;48.888;9.226;2024-01-16T08:18:00;160455.19;;;20.73;38.28
7940;BME280;4015;48.888;9.226;2024-01-16T08:20:25;160439.78;;;20.67;38.69
7940;BME280;4015;48.888;9.226;2024-01-16T08:22:51;160451.34;;;20.71;38.64
7940;BME280;4015;48.888;9.226;2024-01-16T08:25:16;160447.50;;;20.70;38.43
7940;BME280;4015;48.888;9.226;2024-01-16T08:27:41;160446.22;;;20.69;38.44
7940;BME280;4015;48.888;9.226;2024-01-16T08:30:09;160443.66;;;20.68;38.36
7940;BME280;4015;48.888;9.226;2024-01-16T08:32:35;160460.38;;;20.75;38.61
7940;BME280;4015;48.888;9.226;2024-01-16T08:35:00;160462.94;;;20.76;38.44
7940;BME280;4015;48.888;9.226;2024-01-16T08:37:26;160460.38;;;20.75;38.09
7940;BME280;4015;48.888;9.226;2024-01-16T08:39:51;160457.75;;;20.74;38.15
7940;BME280;4015;48.888;9.226;2024-01-16T08:42:17;160452.63;;;20.72;38.28
7940;BME280;4015;48.888;9.226;2024-01-16T08:44:43;160450.06;;;20.71;38.71
7940;BME280;4015;48.888;9.226;2024-01-16T08:47:08;160451.34;;;20.71;38.49
7940;BME280;4015;48.888;9.226;2024-01-16T08:49:34;160447.50;;;20.70;38.15
7940;BME280;4015;48.888;9.226;2024-01-16T08:52:00;160443.66;;;20.68;38.63
7940;BME280;4015;48.888;9.226;2024-01-16T08:54:28;160452.63;;;20.72;38.43
7940;BME280;4015;48.888;9.226;2024-01-16T08:56:53;160448.78;;;20.70;38.42
7940;BME280;4015;48.888;9.226;2024-01-16T08:59:18;160444.94;;;20.69;38.22
7940;BME280;4015;48.888;9.226;2024-01-16T09:01:43;160447.50;;;20.70;38.39
7940;BME280;4015;48.888;9.226;2024-01-16T09:04:09;160443.66;;;20.68;38.37
7940;BME280;4015;48.888;9.226;2024-01-16T09:06:34;160452.63;;;20.72;38.39
7940;BME280;4015;48.888;9.226;2024-01-16T09:08:59;160452.63;;;20.72;38.41
7940;BME280;4015;48.888;9.226;2024-01-16T09:11:25;160448.78;;;20.70;38.37
7940;BME280;4015;48.888;9.226;2024-01-16T09:13:50;160453.91;;;20.72;38.18
7940;BME280;4015;48.888;9.226;2024-01-16T09:16:16;160451.34;;;20.71;38.06
7940;BME280;4015;48.888;9.226;2024-01-16T09:18:42;160453.91;;;20.72;38.21
7940;BME280;4015;48.888;9.226;2024-01-16T09:21:07;160443.66;;;20.68;38.35
7940;BME280;4015;48.888;9.226;2024-01-16T09:23:32;160443.66;;;20.68;38.22
7940;BME280;4015;48.888;9.226;2024-01-16T09:25:57;160452.63;;;20.72;38.13
7940;BME280;4015;48.888;9.226;2024-01-16T09:28:23;160450.06;;;20.71;38.43
7940;BME280;4015;48.888;9.226;2024-01-16T09:30:49;160446.22;;;20.69;38.19
7940;BME280;4015;48.888;9.226;2024-01-16T09:33:14;160447.50;;;20.70;38.23
7940;BME280;4015;48.888;9.226;2024-01-16T09:35:41;160444.94;;;20.69;38.31
7940;BME280;4015;48.888;9.226;2024-01-16T09:38:07;160438.50;;;20.66;38.09
7940;BME280;4015;48.888;9.226;2024-01-16T09:40:33;160441.06;;;20.67;38.44
7940;BME280;4015;48.888;9.226;2024-01-16T09:43:00;160441.06;;;20.67;38.61
7940;BME280;4015;48.888;9.226;2024-01-16T09:45:26;160453.91;;;20.72;38.64
7940;BME280;4015;48.888;9.226;2024-01-16T09:47:53;160450.06;;;20.71;38.48
7940;BME280;4015;48.888;9.226;2024-01-16T09:50:19;160456.47;;;20.73;38.02
7940;BME280;4015;48.888;9.226;2024-01-16T09:52:48;160443.66;;;20.68;38.33
7940;BME280;4015;48.888;9.226;2024-01-16T09:55:15;160444.94;;;20.69;38.33
7940;BME280;4015;48.888;9.226;2024-01-16T09:57:40;160455.19;;;20.73;38.13
7940;BME280;4015;48.888;9.226;2024-01-16T10:00:10;160456.47;;;20.73;38.45
7940;BME280;4015;48.888;9.226;2024-01-16T10:02:40;160452.63;;;20.72;38.23
7940;BME280;4015;48.888;9.226;2024-01-16T10:05:10;160460.38;;;20.75;38.11
7940;BME280;4015;48.888;9.226;2024-01-16T10:07:37;160466.75;;;20.78;38.21
7940;BME280;4015;48.888;9.226;2024-01-16T10:10:03;160451.34;;;20.71;38.40
7940;BME280;4015;48.888;9.226;2024-01-16T10:12:28;160455.19;;;20.73;38.02
7940;BME280;4015;48.888;9.226;2024-01-16T10:14:55;160453.91;;;20.72;38.62
7940;BME280;4015;48.888;9.226;2024-01-16T10:17:20;160450.06;;;20.71;38.22
7940;BME280;4015;48.888;9.226;2024-01-16T10:19:55;160450.06;;;20.71;38.20
7940;BME280;4015;48.888;9.226;2024-01-16T10:22:23;160446.22;;;20.69;38.54
7940;BME280;4015;48.888;9.226;2024-01-16T10:24:57;160443.66;;;20.68;38.34
7940;BME280;4015;48.888;9.226;2024-01-16T10:27:28;160441.06;;;20.67;38.45
7940;BME280;4015;48.888;9.226;2024-01-16T10:29:57;160426.97;;;20.62;38.85
7940;BME280;4015;48.888;9.226;2024-01-16T10:32:39;160421.78;;;20.60;38.83
7940;BME280;4015;48.888;9.226;2024-01-16T10:37:49;160419.22;;;20.59;38.45
7940;BME280;4015;48.888;9.226;2024-01-16T10:40:20;160410.22;;;20.55;38.74
7940;BME280;4015;48.888;9.226;2024-01-16T10:42:46;160401.25;;;20.52;38.87
7940;BME280;4015;48.888;9.226;2024-01-16T10:45:18;160388.38;;;20.46;38.64
7940;BME280;4015;48.888;9.226;2024-01-16T10:47:47;160387.09;;;20.46;38.92
7940;BME280;4015;48.888;9.226;2024-01-16T10:50:13;160385.81;;;20.45;38.77
7940;BME280;4015;48.888;9.226;2024-01-16T10:52:46;160383.22;;;20.44;38.59
7940;BME280;4015;48.888;9.226;2024-01-16T10:55:22;160381.94;;;20.44;38.95
7940;BME280;4015;48.888;9.226;2024-01-16T10:57:51;160374.19;;;20.41;38.79
7940;BME280;4015;48.888;9.226;2024-01-16T11:00:21;160370.34;;;20.39;38.68
7940;BME280;4015;48.888;9.226;2024-01-16T11:03:05;160369.06;;;20.39;38.93
7940;BME280;4015;48.888;9.226;2024-01-16T11:05:34;160363.94;;;20.37;39.11
7940;BME280;4015;48.888;9.226;2024-01-16T11:08:01;160354.94;;;20.33;38.99
7940;BME280;4015;48.888;9.226;2024-01-16T11:10:27;160347.25;;;20.30;38.77
7940;BME280;4015;48.888;9.226;2024-01-16T11:12:54;160360.06;;;20.35;39.06
7940;BME280;4015;48.888;9.226;2024-01-16T11:15:21;160348.53;;;20.31;38.98
7940;BME280;4015;48.888;9.226;2024-01-16T11:17:47;160340.78;;;20.28;39.23
7940;BME280;4015;48.888;9.226;2024-01-16T11:20:15;160334.38;;;20.25;39.44
7940;BME280;4015;48.888;9.226;2024-01-16T11:22:43;160320.25;;;20.19;39.12
7940;BME280;4015;48.888;9.226;2024-01-16T11:25:12;160321.53;;;20.20;38.93
7940;BME280;4015;48.888;9.226;2024-01-16T11:27:39;160318.97;;;20.19;39.00
7940;BME280;4015;48.888;9.226;2024-01-16T11:30:08;160312.53;;;20.16;39.21
7940;BME280;4015;48.888;9.226;2024-01-16T11:32:38;160306.13;;;20.14;39.15
7940;BME280;4015;48.888;9.226;2024-01-16T11:35:06;160295.81;;;20.10;38.99
7940;BME280;4015;48.888;9.226;2024-01-16T11:37:33;160298.38;;;20.11;39.24
7940;BME280;4015;48.888;9.226;2024-01-16T11:42:43;160285.59;;;20.06;39.45
7940;BME280;4015;48.888;9.226;2024-01-16T11:48:22;160280.41;;;20.04;39.32
7940;BME280;4015;48.888;9.226;2024-01-16T11:50:48;160281.69;;;20.04;39.11
7940;BME280;4015;48.888;9.226;2024-01-16T12:01:41;160253.47;;;19.93;39.43
7940;BME280;4015;48.888;9.226;2024-01-16T12:04:09;160252.19;;;19.92;39.53
7940;BME280;4015;48.888;9.226;2024-01-16T12:06:35;160249.56;;;19.91;39.42
7940;BME280;4015;48.888;9.226;2024-01-16T12:09:14;160245.72;;;19.90;39.67
7940;BME280;4015;48.888;9.226;2024-01-16T12:11:40;160245.72;;;19.90;39.17
7940;BME280;4015;48.888;9.226;2024-01-16T12:14:05;160241.91;;;19.88;39.41
7940;BME280;4015;48.888;9.226;2024-01-16T12:16:31;160238.06;;;19.87;39.46
7940;BME280;4015;48.888;9.226;2024-01-16T12:19:08;160235.44;;;19.86;39.73
7940;BME280;4015;48.888;9.226;2024-01-16T12:21:35;160239.34;;;19.87;39.36
7940;BME280;4015;48.888;9.226;2024-01-16T12:24:04;160226.47;;;19.82;39.75
7940;BME280;4015;48.888;9.226;2024-01-16T12:26:29;160225.19;;;19.82;39.45
7940;BME280;4015;48.888;9.226;2024-01-16T12:28:55;160221.34;;;19.80;39.49
7940;BME280;4015;48.888;9.226;2024-01-16T12:31:20;160217.47;;;19.79;39.39
7940;BME280;4015;48.888;9.226;2024-01-16T12:33:45;160214.91;;;19.78;39.53
7940;BME280;4015;48.888;9.226;2024-01-16T12:36:10;160209.78;;;19.76;39.38
7940;BME280;4015;48.888;9.226;2024-01-16T12:38:36;160208.50;;;19.75;39.64
7940;BME280;4015;48.888;9.226;2024-01-16T12:41:02;160202.06;;;19.73;39.42
7940;BME280;4015;48.888;9.226;2024-01-16T12:43:31;160195.66;;;19.70;39.87
7940;BME280;4015;48.888;9.226;2024-01-16T12:45:57;160198.22;;;19.71;39.51
7940;BME280;4015;48.888;9.226;2024-01-16T12:48:23;160199.50;;;19.72;39.92
7940;BME280;4015;48.888;9.226;2024-01-16T12:50:49;160200.78;;;19.72;39.91
7940;BME280;4015;48.888;9.226;2024-01-16T12:53:14;160191.81;;;19.69;39.76
7940;BME280;4015;48.888;9.226;2024-01-16T12:55:42;160187.91;;;19.67;39.66
7940;BME280;4015;48.888;9.226;2024-01-16T13:00:49;160180.25;;;19.64;39.93
7940;BME280;4015;48.888;9.226;2024-01-16T13:03:23;160177.69;;;19.63;39.76
7940;BME280;4015;48.888;9.226;2024-01-16T13:06:00;160171.22;;;19.60;39.90
7940;BME280;4015;48.888;9.226;2024-01-16T13:08:27;160173.84;;;19.61;39.83
7940;BME280;4015;48.888;9.226;2024-01-16T13:13:28;160167.38;;;19.59;39.77
7940;BME280;4015;48.888;9.226;2024-01-16T13:15:53;160163.50;;;19.57;39.98
7940;BME280;4015;48.888;9.226;2024-01-16T13:18:20;160163.50;;;19.57;39.84
7940;BME280;4015;48.888;9.226;2024-01-16T13:20:47;160162.22;;;19.57;39.83
7940;BME280;4015;48.888;9.226;2024-01-16T13:23:13;160155.78;;;19.54;40.19
7940;BME280;4015;48.888;9.226;2024-01-16T13:25:41;160157.09;;;19.55;39.97